sensor_id;sensor_type;location;lat;lon;timestamp;temperature;humidity
78767;SHT31;68092;51.982;5.680;2023-04-25T00:00:45;11.0;58.5
78767;SHT31;68092;51.982;5.680;2023-04-25T00:03:15;10.9;58.5
78767;SHT31;68092;51.982;5.680;2023-04-25T00:05:45;10.9;59.1
78767;SHT31;68092;51.982;5.680;2023-04-25T00:08:16;10.8;59.1
78767;SHT31;68092;51.982;5.680;2023-04-25T00:10:45;10.8;59.0
78767;SHT31;68092;51.982;5.680;2023-04-25T00:13:16;10.8;58.9
78767;SHT31;68092;51.982;5.680;2023-04-25T00:15:47;10.7;58.7
78767;SHT31;68092;51.982;5.680;2023-04-25T00:18:17;10.7;58.9
78767;SHT31;68092;51.982;5.680;2023-04-25T00:20:47;10.6;58.8
78767;SHT31;68092;51.982;5.680;2023-04-25T00:23:17;10.6;59.2
78767;SHT31;68092;51.982;5.680;2023-04-25T00:25:48;10.5;59.2
78767;SHT31;68092;51.982;5.680;2023-04-25T00:28:19;10.5;59.9
78767;SHT31;68092;51.982;5.680;2023-04-25T00:30:48;10.4;59.8
78767;SHT31;68092;51.982;5.680;2023-04-25T00:33:18;10.4;59.5
78767;SHT31;68092;51.982;5.680;2023-04-25T00:35:48;10.4;59.5
78767;SHT31;68092;51.982;5.680;2023-04-25T00:38:18;10.3;59.4
78767;SHT31;68092;51.982;5.680;2023-04-25T00:40:47;10.3;58.8
78767;SHT31;68092;51.982;5.680;2023-04-25T00:43:17;10.3;59.5
78767;SHT31;68092;51.982;5.680;2023-04-25T00:45:47;10.2;59.3
78767;SHT31;68092;51.982;5.680;2023-04-25T00:48:19;10.2;59.2
78767;SHT31;68092;51.982;5.680;2023-04-25T00:50:52;10.1;59.5
78767;SHT31;68092;51.982;5.680;2023-04-25T00:53:25;10.1;59.7
78767;SHT31;68092;51.982;5.680;2023-04-25T00:55:56;10.0;59.7
78767;SHT31;68092;51.982;5.680;2023-04-25T00:58:26;10.0;59.5
78767;SHT31;68092;51.982;5.680;2023-04-25T01:00:57;10.0;59.6
78767;SHT31;68092;51.982;5.680;2023-04-25T01:03:33;9.9;59.7
78767;SHT31;68092;51.982;5.680;2023-04-25T01:06:10;9.9;59.8
78767;SHT31;68092;51.982;5.680;2023-04-25T01:08:40;9.8;60.7
78767;SHT31;68092;51.982;5.680;2023-04-25T01:11:11;9.8;61.0
78767;SHT31;68092;51.982;5.680;2023-04-25T01:13:44;9.8;61.5
78767;SHT31;68092;51.982;5.680;2023-04-25T01:16:14;9.7;62.0
78767;SHT31;68092;51.982;5.680;2023-04-25T01:18:45;9.7;62.5
78767;SHT31;68092;51.982;5.680;2023-04-25T01:21:16;9.7;62.5
78767;SHT31;68092;51.982;5.680;2023-04-25T01:23:45;9.7;62.8
78767;SHT31;68092;51.982;5.680;2023-04-25T01:26:16;9.7;63.0
78767;SHT31;68092;51.982;5.680;2023-04-25T01:28:55;9.6;63.0
78767;SHT31;68092;51.982;5.680;2023-04-25T01:31:28;9.6;63.1
78767;SHT31;68092;51.982;5.680;2023-04-25T01:33:58;9.6;63.5
78767;SHT31;68092;51.982;5.680;2023-04-25T01:36:31;9.6;63.8
78767;SHT31;68092;51.982;5.680;2023-04-25T01:39:01;9.7;63.8
78767;SHT31;68092;51.982;5.680;2023-04-25T01:41:31;9.7;63.5
78767;SHT31;68092;51.982;5.680;2023-04-25T01:44:03;9.7;63.7
78767;SHT31;68092;51.982;5.680;2023-04-25T01:46:35;9.7;63.6
78767;SHT31;68092;51.982;5.680;2023-04-25T01:49:05;9.7;63.3
78767;SHT31;68092;51.982;5.680;2023-04-25T01:51:35;9.7;63.3
78767;SHT31;68092;51.982;5.680;2023-04-25T01:54:05;9.7;63.3
78767;SHT31;68092;51.982;5.680;2023-04-25T01:56:36;9.7;63.4
78767;SHT31;68092;51.982;5.680;2023-04-25T01:59:06;9.7;63.2
78767;SHT31;68092;51.982;5.680;2023-04-25T02:01:36;9.7;63.3
78767;SHT31;68092;51.982;5.680;2023-04-25T02:04:06;9.7;63.0
78767;SHT31;68092;51.982;5.680;2023-04-25T02:06:35;9.7;62.8
78767;SHT31;68092;51.982;5.680;2023-04-25T02:09:07;9.7;62.5
78767;SHT31;68092;51.982;5.680;2023-04-25T02:11:36;9.7;62.3
78767;SHT31;68092;51.982;5.680;2023-04-25T02:14:06;9.7;62.2
78767;SHT31;68092;51.982;5.680;2023-04-25T02:16:35;9.7;61.3
78767;SHT31;68092;51.982;5.680;2023-04-25T02:19:06;9.7;61.4
78767;SHT31;68092;51.982;5.680;2023-04-25T02:21:38;9.6;61.2
78767;SHT31;68092;51.982;5.680;2023-04-25T02:24:09;9.6;61.0
78767;SHT31;68092;51.982;5.680;2023-04-25T02:26:39;9.6;61.0
78767;SHT31;68092;51.982;5.680;2023-04-25T02:29:09;9.6;60.5
78767;SHT31;68092;51.982;5.680;2023-04-25T02:31:39;9.6;60.6
78767;SHT31;68092;51.982;5.680;2023-04-25T02:34:09;9.5;60.3
78767;SHT31;68092;51.982;5.680;2023-04-25T02:36:38;9.5;60.3
78767;SHT31;68092;51.982;5.680;2023-04-25T02:39:08;9.5;60.2
78767;SHT31;68092;51.982;5.680;2023-04-25T02:41:38;9.5;60.2
78767;SHT31;68092;51.982;5.680;2023-04-25T02:44:08;9.4;60.0
78767;SHT31;68092;51.982;5.680;2023-04-25T02:46:37;9.4;59.8
78767;SHT31;68092;51.982;5.680;2023-04-25T02:49:07;9.4;59.6
78767;SHT31;68092;51.982;5.680;2023-04-25T02:51:37;9.3;59.8
78767;SHT31;68092;51.982;5.680;2023-04-25T02:54:06;9.3;60.1
78767;SHT31;68092;51.982;5.680;2023-04-25T02:56:36;9.3;60.0
78767;SHT31;68092;51.982;5.680;2023-04-25T02:59:05;9.2;59.9
78767;SHT31;68092;51.982;5.680;2023-04-25T03:01:35;9.2;59.9
78767;SHT31;68092;51.982;5.680;2023-04-25T03:04:05;9.1;59.7
78767;SHT31;68092;51.982;5.680;2023-04-25T03:06:34;9.1;59.8
78767;SHT31;68092;51.982;5.680;2023-04-25T03:09:04;9.1;60.0
78767;SHT31;68092;51.982;5.680;2023-04-25T03:11:34;9.0;60.0
78767;SHT31;68092;51.982;5.680;2023-04-25T03:14:04;9.0;59.9
78767;SHT31;68092;51.982;5.680;2023-04-25T03:16:33;9.0;59.7
78767;SHT31;68092;51.982;5.680;2023-04-25T03:19:06;8.9;59.8
78767;SHT31;68092;51.982;5.680;2023-04-25T03:21:36;8.9;59.8
78767;SHT31;68092;51.982;5.680;2023-04-25T03:24:07;8.9;60.1
78767;SHT31;68092;51.982;5.680;2023-04-25T03:26:38;8.8;60.0
78767;SHT31;68092;51.982;5.680;2023-04-25T03:29:08;8.8;60.6
78767;SHT31;68092;51.982;5.680;2023-04-25T03:31:37;8.8;60.6
78767;SHT31;68092;51.982;5.680;2023-04-25T03:34:07;8.8;61.2
78767;SHT31;68092;51.982;5.680;2023-04-25T03:36:36;8.7;61.9
78767;SHT31;68092;51.982;5.680;2023-04-25T03:39:06;8.7;62.3
78767;SHT31;68092;51.982;5.680;2023-04-25T03:41:37;8.7;62.7
78767;SHT31;68092;51.982;5.680;2023-04-25T03:44:06;8.7;63.2
78767;SHT31;68092;51.982;5.680;2023-04-25T03:46:36;8.7;63.2
78767;SHT31;68092;51.982;5.680;2023-04-25T03:49:06;8.7;63.2
78767;SHT31;68092;51.982;5.680;2023-04-25T03:51:36;8.7;62.6
78767;SHT31;68092;51.982;5.680;2023-04-25T03:54:06;8.7;62.4
78767;SHT31;68092;51.982;5.680;2023-04-25T03:56:35;8.6;62.0
78767;SHT31;68092;51.982;5.680;2023-04-25T03:59:05;8.6;61.9
78767;SHT31;68092;51.982;5.680;2023-04-25T04:01:35;8.6;62.0
78767;SHT31;68092;51.982;5.680;2023-04-25T04:04:06;8.6;61.7
78767;SHT31;68092;51.982;5.680;2023-04-25T04:06:35;8.6;61.9
78767;SHT31;68092;51.982;5.680;2023-04-25T04:09:05;8.6;61.7
78767;SHT31;68092;51.982;5.680;2023-04-25T04:11:38;8.6;61.7
78767;SHT31;68092;51.982;5.680;2023-04-25T04:14:08;8.5;62.3
78767;SHT31;68092;51.982;5.680;2023-04-25T04:16:37;8.5;62.8
78767;SHT31;68092;51.982;5.680;2023-04-25T04:19:07;8.5;62.6
78767;SHT31;68092;51.982;5.680;2023-04-25T04:21:37;8.5;62.5
78767;SHT31;68092;51.982;5.680;2023-04-25T04:24:10;8.5;62.7
78767;SHT31;68092;51.982;5.680;2023-04-25T04:26:40;8.5;62.6
78767;SHT31;68092;51.982;5.680;2023-04-25T04:29:12;8.5;63.4
78767;SHT31;68092;51.982;5.680;2023-04-25T04:31:46;8.5;63.5
78767;SHT31;68092;51.982;5.680;2023-04-25T04:34:18;8.5;63.6
78767;SHT31;68092;51.982;5.680;2023-04-25T04:36:48;8.5;63.6
78767;SHT31;68092;51.982;5.680;2023-04-25T04:39:17;8.5;63.9
78767;SHT31;68092;51.982;5.680;2023-04-25T04:41:48;8.5;64.1
78767;SHT31;68092;51.982;5.680;2023-04-25T04:44:18;8.5;64.3
78767;SHT31;68092;51.982;5.680;2023-04-25T04:46:48;8.5;64.3
78767;SHT31;68092;51.982;5.680;2023-04-25T04:49:20;8.5;64.4
78767;SHT31;68092;51.982;5.680;2023-04-25T04:51:50;8.6;64.7
78767;SHT31;68092;51.982;5.680;2023-04-25T04:54:22;8.6;64.4
78767;SHT31;68092;51.982;5.680;2023-04-25T04:56:55;8.6;64.4
78767;SHT31;68092;51.982;5.680;2023-04-25T04:59:24;8.7;64.3
78767;SHT31;68092;51.982;5.680;2023-04-25T05:01:56;8.7;64.2
78767;SHT31;68092;51.982;5.680;2023-04-25T05:04:26;8.7;64.7
78767;SHT31;68092;51.982;5.680;2023-04-25T05:06:55;8.7;64.8
78767;SHT31;68092;51.982;5.680;2023-04-25T05:09:26;8.7;64.8
78767;SHT31;68092;51.982;5.680;2023-04-25T05:11:55;8.8;65.6
78767;SHT31;68092;51.982;5.680;2023-04-25T05:14:25;8.8;65.1
78767;SHT31;68092;51.982;5.680;2023-04-25T05:16:55;8.8;65.3
78767;SHT31;68092;51.982;5.680;2023-04-25T05:19:25;8.8;65.7
78767;SHT31;68092;51.982;5.680;2023-04-25T05:21:56;8.8;65.2
78767;SHT31;68092;51.982;5.680;2023-04-25T05:24:25;8.9;65.3
78767;SHT31;68092;51.982;5.680;2023-04-25T05:27:00;8.9;64.7
78767;SHT31;68092;51.982;5.680;2023-04-25T05:29:29;8.9;65.2
78767;SHT31;68092;51.982;5.680;2023-04-25T05:31:59;9.0;65.5
78767;SHT31;68092;51.982;5.680;2023-04-25T05:34:29;9.0;65.5
78767;SHT31;68092;51.982;5.680;2023-04-25T05:36:59;9.1;65.2
78767;SHT31;68092;51.982;5.680;2023-04-25T05:39:29;9.1;65.5
78767;SHT31;68092;51.982;5.680;2023-04-25T05:41:58;9.1;65.6
78767;SHT31;68092;51.982;5.680;2023-04-25T05:44:30;9.1;65.7
78767;SHT31;68092;51.982;5.680;2023-04-25T05:46:59;9.2;65.7
78767;SHT31;68092;51.982;5.680;2023-04-25T05:49:31;9.2;64.8
78767;SHT31;68092;51.982;5.680;2023-04-25T05:52:03;9.3;65.0
78767;SHT31;68092;51.982;5.680;2023-04-25T05:54:33;9.3;65.2
78767;SHT31;68092;51.982;5.680;2023-04-25T05:57:04;9.4;64.1
78767;SHT31;68092;51.982;5.680;2023-04-25T05:59:34;9.4;64.6
78767;SHT31;68092;51.982;5.680;2023-04-25T06:02:04;9.5;64.2
78767;SHT31;68092;51.982;5.680;2023-04-25T06:04:35;9.5;63.9
78767;SHT31;68092;51.982;5.680;2023-04-25T06:07:05;9.6;61.8
78767;SHT31;68092;51.982;5.680;2023-04-25T06:09:34;9.6;61.5
78767;SHT31;68092;51.982;5.680;2023-04-25T06:12:07;9.6;61.0
78767;SHT31;68092;51.982;5.680;2023-04-25T06:14:37;9.7;61.6
78767;SHT31;68092;51.982;5.680;2023-04-25T06:17:07;9.7;62.7
78767;SHT31;68092;51.982;5.680;2023-04-25T06:19:36;9.8;62.1
78767;SHT31;68092;51.982;5.680;2023-04-25T06:22:08;9.8;61.9
78767;SHT31;68092;51.982;5.680;2023-04-25T06:24:38;9.9;60.9
78767;SHT31;68092;51.982;5.680;2023-04-25T06:27:07;9.9;60.2
78767;SHT31;68092;51.982;5.680;2023-04-25T06:29:37;9.9;61.3
78767;SHT31;68092;51.982;5.680;2023-04-25T06:32:11;10.0;61.3
78767;SHT31;68092;51.982;5.680;2023-04-25T06:34:41;10.0;61.3
78767;SHT31;68092;51.982;5.680;2023-04-25T06:37:11;10.1;61.0
78767;SHT31;68092;51.982;5.680;2023-04-25T06:39:40;10.1;61.4
78767;SHT31;68092;51.982;5.680;2023-04-25T06:42:10;10.2;61.9
78767;SHT31;68092;51.982;5.680;2023-04-25T06:44:40;10.3;61.3
78767;SHT31;68092;51.982;5.680;2023-04-25T06:47:09;10.3;61.2
78767;SHT31;68092;51.982;5.680;2023-04-25T06:49:39;10.4;61.3
78767;SHT31;68092;51.982;5.680;2023-04-25T06:52:09;10.4;58.3
78767;SHT31;68092;51.982;5.680;2023-04-25T06:54:39;10.5;59.4
78767;SHT31;68092;51.982;5.680;2023-04-25T06:57:12;10.5;59.2
78767;SHT31;68092;51.982;5.680;2023-04-25T06:59:42;10.6;59.1
78767;SHT31;68092;51.982;5.680;2023-04-25T07:02:12;10.6;58.6
78767;SHT31;68092;51.982;5.680;2023-04-25T07:04:41;10.6;60.2
78767;SHT31;68092;51.982;5.680;2023-04-25T07:07:17;10.7;59.0
78767;SHT31;68092;51.982;5.680;2023-04-25T07:09:48;10.8;59.4
78767;SHT31;68092;51.982;5.680;2023-04-25T07:12:18;10.8;57.1
78767;SHT31;68092;51.982;5.680;2023-04-25T07:14:48;10.9;56.8
78767;SHT31;68092;51.982;5.680;2023-04-25T07:17:17;10.9;57.7
78767;SHT31;68092;51.982;5.680;2023-04-25T07:19:47;11.0;56.5
78767;SHT31;68092;51.982;5.680;2023-04-25T07:22:21;11.1;55.0
78767;SHT31;68092;51.982;5.680;2023-04-25T07:24:53;11.1;57.1
78767;SHT31;68092;51.982;5.680;2023-04-25T07:27:25;11.2;56.6
78767;SHT31;68092;51.982;5.680;2023-04-25T07:29:55;11.3;56.7
78767;SHT31;68092;51.982;5.680;2023-04-25T07:32:25;11.3;54.4
78767;SHT31;68092;51.982;5.680;2023-04-25T07:34:54;11.4;54.6
78767;SHT31;68092;51.982;5.680;2023-04-25T07:37:24;11.5;54.9
78767;SHT31;68092;51.982;5.680;2023-04-25T07:39:55;11.5;56.5
78767;SHT31;68092;51.982;5.680;2023-04-25T07:42:24;11.6;55.3
78767;SHT31;68092;51.982;5.680;2023-04-25T07:44:54;11.7;55.6
78767;SHT31;68092;51.982;5.680;2023-04-25T07:47:24;11.7;56.7
78767;SHT31;68092;51.982;5.680;2023-04-25T07:49:54;11.8;55.8
78767;SHT31;68092;51.982;5.680;2023-04-25T07:52:27;11.9;55.0
78767;SHT31;68092;51.982;5.680;2023-04-25T07:54:58;12.0;54.1
78767;SHT31;68092;51.982;5.680;2023-04-25T07:57:28;12.1;54.8
78767;SHT31;68092;51.982;5.680;2023-04-25T07:59:58;12.1;54.8
78767;SHT31;68092;51.982;5.680;2023-04-25T08:02:27;12.2;54.1
78767;SHT31;68092;51.982;5.680;2023-04-25T08:04:57;12.3;53.7
78767;SHT31;68092;51.982;5.680;2023-04-25T08:07:29;12.4;53.4
78767;SHT31;68092;51.982;5.680;2023-04-25T08:09:59;12.5;53.4
78767;SHT31;68092;51.982;5.680;2023-04-25T08:12:28;12.6;53.1
78767;SHT31;68092;51.982;5.680;2023-04-25T08:14:58;12.6;51.8
78767;SHT31;68092;51.982;5.680;2023-04-25T08:17:27;12.7;51.5
78767;SHT31;68092;51.982;5.680;2023-04-25T08:19:57;12.8;51.1
78767;SHT31;68092;51.982;5.680;2023-04-25T08:22:29;12.9;50.1
78767;SHT31;68092;51.982;5.680;2023-04-25T08:25:00;13.0;50.2
78767;SHT31;68092;51.982;5.680;2023-04-25T08:27:29;13.0;49.0
78767;SHT31;68092;51.982;5.680;2023-04-25T08:29:59;13.1;49.6
78767;SHT31;68092;51.982;5.680;2023-04-25T08:32:30;13.1;48.9
78767;SHT31;68092;51.982;5.680;2023-04-25T08:35:01;13.2;49.0
78767;SHT31;68092;51.982;5.680;2023-04-25T08:37:31;13.2;49.4
78767;SHT31;68092;51.982;5.680;2023-04-25T08:40:01;13.2;48.5
78767;SHT31;68092;51.982;5.680;2023-04-25T08:42:39;13.3;47.0
78767;SHT31;68092;51.982;5.680;2023-04-25T08:45:13;13.3;48.7
78767;SHT31;68092;51.982;5.680;2023-04-25T08:47:45;13.4;47.5
78767;SHT31;68092;51.982;5.680;2023-04-25T08:50:19;13.4;50.5
78767;SHT31;68092;51.982;5.680;2023-04-25T08:52:52;13.5;46.2
78767;SHT31;68092;51.982;5.680;2023-04-25T08:55:28;13.6;48.5
78767;SHT31;68092;51.982;5.680;2023-04-25T08:57:59;13.8;45.8
78767;SHT31;68092;51.982;5.680;2023-04-25T09:00:30;13.9;46.2
78767;SHT31;68092;51.982;5.680;2023-04-25T09:03:01;14.0;44.5
78767;SHT31;68092;51.982;5.680;2023-04-25T09:05:32;14.1;42.3
78767;SHT31;68092;51.982;5.680;2023-04-25T09:08:03;14.1;44.8
78767;SHT31;68092;51.982;5.680;2023-04-25T09:10:34;14.1;44.4
78767;SHT31;68092;51.982;5.680;2023-04-25T09:13:06;14.1;44.6
78767;SHT31;68092;51.982;5.680;2023-04-25T09:15:49;14.0;48.5
78767;SHT31;68092;51.982;5.680;2023-04-25T09:18:27;14.0;48.0
78767;SHT31;68092;51.982;5.680;2023-04-25T09:21:04;13.9;48.2
78767;SHT31;68092;51.982;5.680;2023-04-25T09:23:41;13.9;48.1
78767;SHT31;68092;51.982;5.680;2023-04-25T09:26:14;13.9;49.4
78767;SHT31;68092;51.982;5.680;2023-04-25T09:28:46;13.9;49.2
78767;SHT31;68092;51.982;5.680;2023-04-25T09:31:28;13.9;53.3
78767;SHT31;68092;51.982;5.680;2023-04-25T09:34:00;14.0;49.4
78767;SHT31;68092;51.982;5.680;2023-04-25T09:36:31;14.1;48.4
78767;SHT31;68092;51.982;5.680;2023-04-25T09:39:01;14.1;50.5
78767;SHT31;68092;51.982;5.680;2023-04-25T09:41:33;14.2;46.8
78767;SHT31;68092;51.982;5.680;2023-04-25T09:44:06;14.3;47.1
78767;SHT31;68092;51.982;5.680;2023-04-25T09:46:36;14.5;44.3
78767;SHT31;68092;51.982;5.680;2023-04-25T09:49:08;14.6;44.3
78767;SHT31;68092;51.982;5.680;2023-04-25T09:51:37;14.7;46.1
78767;SHT31;68092;51.982;5.680;2023-04-25T09:54:07;14.9;42.5
78767;SHT31;68092;51.982;5.680;2023-04-25T09:56:38;15.0;40.6
78767;SHT31;68092;51.982;5.680;2023-04-25T09:59:08;15.1;40.6
78767;SHT31;68092;51.982;5.680;2023-04-25T10:01:40;15.2;43.0
78767;SHT31;68092;51.982;5.680;2023-04-25T10:04:11;15.3;41.5
78767;SHT31;68092;51.982;5.680;2023-04-25T10:06:43;15.5;43.1
78767;SHT31;68092;51.982;5.680;2023-04-25T10:09:14;15.6;41.2
78767;SHT31;68092;51.982;5.680;2023-04-25T10:11:46;15.7;40.5
78767;SHT31;68092;51.982;5.680;2023-04-25T10:14:17;15.8;38.6
78767;SHT31;68092;51.982;5.680;2023-04-25T10:16:48;15.9;40.8
78767;SHT31;68092;51.982;5.680;2023-04-25T10:19:24;15.9;40.0
78767;SHT31;68092;51.982;5.680;2023-04-25T10:21:58;16.0;40.9
78767;SHT31;68092;51.982;5.680;2023-04-25T10:24:31;16.0;39.4
78767;SHT31;68092;51.982;5.680;2023-04-25T10:27:02;16.0;39.1
78767;SHT31;68092;51.982;5.680;2023-04-25T10:29:32;16.0;38.8
78767;SHT31;68092;51.982;5.680;2023-04-25T10:32:03;16.0;38.0
78767;SHT31;68092;51.982;5.680;2023-04-25T10:34:40;16.0;40.3
78767;SHT31;68092;51.982;5.680;2023-04-25T10:37:11;16.0;38.7
78767;SHT31;68092;51.982;5.680;2023-04-25T10:39:42;16.0;39.7
78767;SHT31;68092;51.982;5.680;2023-04-25T10:42:13;16.0;39.8
78767;SHT31;68092;51.982;5.680;2023-04-25T10:45:04;16.0;39.3
78767;SHT31;68092;51.982;5.680;2023-04-25T10:47:44;16.0;40.2
78767;SHT31;68092;51.982;5.680;2023-04-25T10:50:16;16.0;38.5
78767;SHT31;68092;51.982;5.680;2023-04-25T10:52:46;16.1;37.5
78767;SHT31;68092;51.982;5.680;2023-04-25T10:55:16;16.1;37.1
78767;SHT31;68092;51.982;5.680;2023-04-25T10:57:45;16.1;36.9
78767;SHT31;68092;51.982;5.680;2023-04-25T11:00:25;16.1;40.0
78767;SHT31;68092;51.982;5.680;2023-04-25T11:02:59;16.2;39.0
78767;SHT31;68092;51.982;5.680;2023-04-25T11:05:32;16.2;40.8
78767;SHT31;68092;51.982;5.680;2023-04-25T11:08:10;16.3;37.6
78767;SHT31;68092;51.982;5.680;2023-04-25T11:10:42;16.4;35.2
78767;SHT31;68092;51.982;5.680;2023-04-25T11:13:12;16.5;36.7
78767;SHT31;68092;51.982;5.680;2023-04-25T11:15:42;16.6;36.5
78767;SHT31;68092;51.982;5.680;2023-04-25T11:18:16;16.8;34.5
78767;SHT31;68092;51.982;5.680;2023-04-25T11:20:48;16.9;34.9
78767;SHT31;68092;51.982;5.680;2023-04-25T11:23:17;17.0;35.3
78767;SHT31;68092;51.982;5.680;2023-04-25T11:25:47;17.1;35.9
78767;SHT31;68092;51.982;5.680;2023-04-25T11:28:23;17.1;34.9
78767;SHT31;68092;51.982;5.680;2023-04-25T11:30:55;17.2;34.7
78767;SHT31;68092;51.982;5.680;2023-04-25T11:33:26;17.3;36.3
78767;SHT31;68092;51.982;5.680;2023-04-25T11:35:56;17.4;37.1
78767;SHT31;68092;51.982;5.680;2023-04-25T11:38:26;17.5;36.6
78767;SHT31;68092;51.982;5.680;2023-04-25T11:40:57;17.7;36.5
78767;SHT31;68092;51.982;5.680;2023-04-25T11:43:28;18.0;35.5
78767;SHT31;68092;51.982;5.680;2023-04-25T11:46:00;18.2;33.0
78767;SHT31;68092;51.982;5.680;2023-04-25T11:48:38;18.4;35.8
78767;SHT31;68092;51.982;5.680;2023-04-25T11:51:08;18.6;33.7
78767;SHT31;68092;51.982;5.680;2023-04-25T11:53:41;18.8;34.4
78767;SHT31;68092;51.982;5.680;2023-04-25T11:56:12;18.9;34.6
78767;SHT31;68092;51.982;5.680;2023-04-25T11:58:59;18.9;35.8
78767;SHT31;68092;51.982;5.680;2023-04-25T12:01:33;18.8;35.9
78767;SHT31;68092;51.982;5.680;2023-04-25T12:04:12;18.6;34.0
78767;SHT31;68092;51.982;5.680;2023-04-25T12:06:44;18.3;34.8
78767;SHT31;68092;51.982;5.680;2023-04-25T12:09:18;18.1;34.5
78767;SHT31;68092;51.982;5.680;2023-04-25T12:11:53;17.8;35.1
78767;SHT31;68092;51.982;5.680;2023-04-25T12:14:27;17.6;36.4
78767;SHT31;68092;51.982;5.680;2023-04-25T12:16:59;17.4;38.2
78767;SHT31;68092;51.982;5.680;2023-04-25T12:19:32;17.3;37.7
78767;SHT31;68092;51.982;5.680;2023-04-25T12:22:03;17.2;36.1
78767;SHT31;68092;51.982;5.680;2023-04-25T12:24:34;17.1;37.2
78767;SHT31;68092;51.982;5.680;2023-04-25T12:27:06;17.0;35.5
78767;SHT31;68092;51.982;5.680;2023-04-25T12:29:36;17.0;36.0
78767;SHT31;68092;51.982;5.680;2023-04-25T12:32:06;16.9;35.3
78767;SHT31;68092;51.982;5.680;2023-04-25T12:34:35;16.9;36.1
78767;SHT31;68092;51.982;5.680;2023-04-25T12:37:05;16.9;35.1
78767;SHT31;68092;51.982;5.680;2023-04-25T12:39:34;16.8;35.6
78767;SHT31;68092;51.982;5.680;2023-04-25T12:42:07;16.8;35.0
78767;SHT31;68092;51.982;5.680;2023-04-25T12:44:47;16.8;34.8
78767;SHT31;68092;51.982;5.680;2023-04-25T12:47:17;16.9;35.0
78767;SHT31;68092;51.982;5.680;2023-04-25T12:49:47;16.9;35.1
78767;SHT31;68092;51.982;5.680;2023-04-25T12:52:17;17.0;36.1
78767;SHT31;68092;51.982;5.680;2023-04-25T12:54:47;17.0;38.4
78767;SHT31;68092;51.982;5.680;2023-04-25T12:57:16;17.1;37.3
78767;SHT31;68092;51.982;5.680;2023-04-25T12:59:46;17.3;37.0
78767;SHT31;68092;51.982;5.680;2023-04-25T13:02:16;17.4;37.2
78767;SHT31;68092;51.982;5.680;2023-04-25T13:04:46;17.4;37.3
78767;SHT31;68092;51.982;5.680;2023-04-25T13:07:17;17.5;38.8
78767;SHT31;68092;51.982;5.680;2023-04-25T13:09:47;17.6;37.5
78767;SHT31;68092;51.982;5.680;2023-04-25T13:12:16;17.7;38.2
78767;SHT31;68092;51.982;5.680;2023-04-25T13:14:46;17.9;37.4
78767;SHT31;68092;51.982;5.680;2023-04-25T13:17:15;18.0;36.1
78767;SHT31;68092;51.982;5.680;2023-04-25T13:19:45;18.1;37.1
78767;SHT31;68092;51.982;5.680;2023-04-25T13:22:15;18.3;36.1
78767;SHT31;68092;51.982;5.680;2023-04-25T13:24:46;18.4;33.7
78767;SHT31;68092;51.982;5.680;2023-04-25T13:27:16;18.6;34.2
78767;SHT31;68092;51.982;5.680;2023-04-25T13:29:46;18.7;32.4
78767;SHT31;68092;51.982;5.680;2023-04-25T13:32:15;18.9;32.2
78767;SHT31;68092;51.982;5.680;2023-04-25T13:34:45;19.0;36.3
78767;SHT31;68092;51.982;5.680;2023-04-25T13:37:17;19.2;36.0
78767;SHT31;68092;51.982;5.680;2023-04-25T13:39:47;19.5;34.0
78767;SHT31;68092;51.982;5.680;2023-04-25T13:42:16;19.6;31.5
78767;SHT31;68092;51.982;5.680;2023-04-25T13:44:46;19.8;31.9
78767;SHT31;68092;51.982;5.680;2023-04-25T13:47:16;20.0;31.6
78767;SHT31;68092;51.982;5.680;2023-04-25T13:49:45;20.2;33.5
78767;SHT31;68092;51.982;5.680;2023-04-25T13:52:15;20.4;31.1
78767;SHT31;68092;51.982;5.680;2023-04-25T13:54:47;20.5;28.5
78767;SHT31;68092;51.982;5.680;2023-04-25T13:57:18;20.6;27.4
78767;SHT31;68092;51.982;5.680;2023-04-25T13:59:50;20.7;28.0
78767;SHT31;68092;51.982;5.680;2023-04-25T14:02:21;20.7;28.9
78767;SHT31;68092;51.982;5.680;2023-04-25T14:04:50;20.6;29.2
78767;SHT31;68092;51.982;5.680;2023-04-25T14:07:22;20.4;29.6
78767;SHT31;68092;51.982;5.680;2023-04-25T14:09:56;20.0;30.0
78767;SHT31;68092;51.982;5.680;2023-04-25T14:12:26;19.8;29.6
78767;SHT31;68092;51.982;5.680;2023-04-25T14:14:58;19.5;30.9
78767;SHT31;68092;51.982;5.680;2023-04-25T14:17:31;19.3;31.8
78767;SHT31;68092;51.982;5.680;2023-04-25T14:20:01;19.1;30.7
78767;SHT31;68092;51.982;5.680;2023-04-25T14:22:33;19.0;31.9
78767;SHT31;68092;51.982;5.680;2023-04-25T14:25:04;18.9;32.6
78767;SHT31;68092;51.982;5.680;2023-04-25T14:27:35;18.9;31.5
78767;SHT31;68092;51.982;5.680;2023-04-25T14:30:13;18.9;30.6
78767;SHT31;68092;51.982;5.680;2023-04-25T14:32:43;18.9;31.1
78767;SHT31;68092;51.982;5.680;2023-04-25T14:35:14;18.9;31.8
78767;SHT31;68092;51.982;5.680;2023-04-25T14:37:47;18.8;31.9
78767;SHT31;68092;51.982;5.680;2023-04-25T14:40:19;18.8;32.5
78767;SHT31;68092;51.982;5.680;2023-04-25T14:42:50;18.8;30.7
78767;SHT31;68092;51.982;5.680;2023-04-25T14:45:22;18.8;30.5
78767;SHT31;68092;51.982;5.680;2023-04-25T14:47:52;18.8;30.6
78767;SHT31;68092;51.982;5.680;2023-04-25T14:50:22;18.7;32.6
78767;SHT31;68092;51.982;5.680;2023-04-25T14:52:52;18.7;33.0
78767;SHT31;68092;51.982;5.680;2023-04-25T14:55:26;18.6;32.1
78767;SHT31;68092;51.982;5.680;2023-04-25T14:57:58;18.7;29.6
78767;SHT31;68092;51.982;5.680;2023-04-25T15:00:28;18.7;32.7
78767;SHT31;68092;51.982;5.680;2023-04-25T15:02:59;18.8;30.7
78767;SHT31;68092;51.982;5.680;2023-04-25T15:05:30;18.9;30.4
78767;SHT31;68092;51.982;5.680;2023-04-25T15:08:00;19.0;31.4
78767;SHT31;68092;51.982;5.680;2023-04-25T15:10:30;19.1;31.6
78767;SHT31;68092;51.982;5.680;2023-04-25T15:13:00;19.3;30.8
78767;SHT31;68092;51.982;5.680;2023-04-25T15:15:30;19.4;32.6
78767;SHT31;68092;51.982;5.680;2023-04-25T15:18:00;19.5;31.1
78767;SHT31;68092;51.982;5.680;2023-04-25T15:20:30;19.6;30.8
78767;SHT31;68092;51.982;5.680;2023-04-25T15:23:01;19.6;31.8
78767;SHT31;68092;51.982;5.680;2023-04-25T15:25:32;19.7;31.8
78767;SHT31;68092;51.982;5.680;2023-04-25T15:28:04;19.7;32.9
78767;SHT31;68092;51.982;5.680;2023-04-25T15:30:33;19.7;30.6
78767;SHT31;68092;51.982;5.680;2023-04-25T15:33:03;19.7;31.0
78767;SHT31;68092;51.982;5.680;2023-04-25T15:35:32;19.6;31.4
78767;SHT31;68092;51.982;5.680;2023-04-25T15:38:05;19.5;30.8
78767;SHT31;68092;51.982;5.680;2023-04-25T15:40:36;19.4;30.4
78767;SHT31;68092;51.982;5.680;2023-04-25T15:43:10;19.3;30.6
78767;SHT31;68092;51.982;5.680;2023-04-25T15:45:42;19.2;31.9
78767;SHT31;68092;51.982;5.680;2023-04-25T15:48:13;19.1;30.8
78767;SHT31;68092;51.982;5.680;2023-04-25T15:50:42;19.1;29.9
78767;SHT31;68092;51.982;5.680;2023-04-25T15:53:14;19.0;29.4
78767;SHT31;68092;51.982;5.680;2023-04-25T15:55:44;18.8;29.5
78767;SHT31;68092;51.982;5.680;2023-04-25T15:58:14;18.6;30.6
78767;SHT31;68092;51.982;5.680;2023-04-25T16:00:44;18.5;30.6
78767;SHT31;68092;51.982;5.680;2023-04-25T16:03:15;18.4;32.1
78767;SHT31;68092;51.982;5.680;2023-04-25T16:05:45;18.3;31.7
78767;SHT31;68092;51.982;5.680;2023-04-25T16:08:15;18.1;31.2
78767;SHT31;68092;51.982;5.680;2023-04-25T16:10:45;18.0;30.5
78767;SHT31;68092;51.982;5.680;2023-04-25T16:13:15;17.8;31.8
78767;SHT31;68092;51.982;5.680;2023-04-25T16:15:44;17.7;32.6
78767;SHT31;68092;51.982;5.680;2023-04-25T16:18:15;17.5;31.5
78767;SHT31;68092;51.982;5.680;2023-04-25T16:20:45;17.4;32.8
78767;SHT31;68092;51.982;5.680;2023-04-25T16:23:15;17.2;32.3
78767;SHT31;68092;51.982;5.680;2023-04-25T16:25:44;17.0;32.6
78767;SHT31;68092;51.982;5.680;2023-04-25T16:28:14;16.8;33.2
78767;SHT31;68092;51.982;5.680;2023-04-25T16:30:44;16.7;34.0